createdAt,value
2022-10-01T00:00:32.339Z,100755.00
2022-10-01T00:06:34.624Z,100762.00
2022-10-01T00:12:37.439Z,100762.00
2022-10-01T00:18:41.251Z,100771.00
2022-10-01T00:24:43.250Z,100775.00
2022-10-01T00:30:48.488Z,100770.00
2022-10-01T00:36:50.599Z,100775.00
2022-10-01T00:42:52.729Z,100760.00
2022-10-01T00:49:02.756Z,100768.00
2022-10-01T00:55:15.113Z,100772.00
2022-10-01T01:01:17.275Z,100770.00
2022-10-01T01:07:20.712Z,100766.00
2022-10-01T01:13:38.149Z,100760.00
2022-10-01T01:20:11.006Z,100756.00
2022-10-01T01:26:34.232Z,100750.00
2022-10-01T01:33:14.824Z,100749.00
2022-10-01T01:39:19.170Z,100737.00
2022-10-01T01:45:26.390Z,100739.00
2022-10-01T01:51:36.562Z,100757.00
2022-10-01T01:57:42.676Z,100766.00
2022-10-01T02:03:45.078Z,100776.00
2022-10-01T02:10:24.805Z,100774.00
2022-10-01T02:16:48.791Z,100778.00
2022-10-01T02:23:07.203Z,100780.00
2022-10-01T02:29:13.513Z,100786.00
2022-10-01T02:35:18.406Z,100772.00
2022-10-01T02:41:24.379Z,100762.00
2022-10-01T02:48:06.481Z,100761.00
2022-10-01T02:54:29.974Z,100761.00
2022-10-01T03:00:32.206Z,100753.00
2022-10-01T03:06:36.330Z,100755.00
2022-10-01T03:12:41.506Z,100751.00
2022-10-01T03:18:43.915Z,100772.00
2022-10-01T03:24:46.162Z,100775.00
2022-10-01T03:30:48.615Z,100776.00
2022-10-01T03:36:52.714Z,100774.00
2022-10-01T03:42:54.883Z,100769.00
2022-10-01T03:48:58.542Z,100769.00
2022-10-01T03:55:01.120Z,100767.00
2022-10-01T04:01:03.273Z,100760.00
2022-10-01T04:07:05.472Z,100758.00
2022-10-01T04:13:08.135Z,100777.00
2022-10-01T04:19:10.165Z,100797.00
2022-10-01T04:25:13.452Z,100805.00
2022-10-01T04:31:25.175Z,100801.00
2022-10-01T04:37:30.541Z,100809.00
2022-10-01T04:43:32.730Z,100787.00
2022-10-01T04:49:35.040Z,100718.00
2022-10-01T04:55:37.263Z,100769.00
2022-10-01T05:01:39.645Z,100697.00
2022-10-01T05:07:41.921Z,100706.00
2022-10-01T05:13:44.203Z,100702.00
2022-10-01T05:19:47.426Z,100694.00
2022-10-01T05:25:49.788Z,100694.00
2022-10-01T05:31:51.838Z,100737.00
2022-10-01T05:37:55.452Z,100808.00
2022-10-01T05:43:57.744Z,100825.00
2022-10-01T05:50:00.289Z,100703.00
2022-10-01T05:56:03.436Z,100801.00
2022-10-01T06:02:05.768Z,100705.00
2022-10-01T06:08:10.007Z,100690.00
2022-10-01T06:14:12.239Z,100668.00
2022-10-01T06:20:17.644Z,100797.00
2022-10-01T06:26:20.572Z,100750.00
2022-10-01T06:32:22.992Z,100786.00
2022-10-01T06:38:26.084Z,100824.00
2022-10-01T06:44:28.312Z,100794.00
2022-10-01T06:50:32.393Z,100738.00
2022-10-01T06:56:36.270Z,100781.00
2022-10-01T07:02:38.658Z,100782.00
2022-10-01T07:08:40.878Z,100763.00
2022-10-01T07:14:43.268Z,100655.00
2022-10-01T07:20:45.729Z,100688.00
2022-10-01T07:26:51.241Z,100689.00
2022-10-01T07:32:54.730Z,100717.00
2022-10-01T07:38:56.908Z,100748.00
2022-10-01T07:44:59.017Z,100797.00
2022-10-01T07:51:01.373Z,100778.00
2022-10-01T07:57:03.534Z,100778.00
2022-10-01T08:03:06.252Z,100792.00
2022-10-01T08:09:08.265Z,100665.00
2022-10-01T08:15:15.975Z,100675.00
2022-10-01T08:21:18.285Z,100691.00
2022-10-01T08:27:27.070Z,100677.00
2022-10-01T08:33:29.416Z,100662.00
2022-10-01T08:39:31.804Z,100688.00
2022-10-01T08:45:41.918Z,100722.00
2022-10-01T08:51:57.843Z,100670.00
2022-10-01T08:58:02.686Z,100663.00
2022-10-01T09:04:06.207Z,100657.00
2022-10-01T09:10:42.362Z,100668.00
2022-10-01T09:17:14.966Z,100696.00
2022-10-01T09:23:37.058Z,100689.00
2022-10-01T09:29:51.517Z,100672.00
2022-10-01T09:36:17.852Z,100697.00
2022-10-01T09:42:28.578Z,100693.00
2022-10-01T09:48:38.740Z,100696.00
2022-10-01T09:55:01.564Z,100691.00
2022-10-01T10:01:04.871Z,100675.00
2022-10-01T10:07:07.252Z,100669.00
2022-10-01T10:13:18.257Z,100648.00
2022-10-01T10:19:30.087Z,100653.00
2022-10-01T10:25:32.422Z,100653.00
2022-10-01T10:31:44.054Z,100642.00
2022-10-01T10:37:54.132Z,100588.00
2022-10-01T10:44:01.044Z,100621.00
2022-10-01T10:50:06.396Z,100645.00
2022-10-01T10:56:23.156Z,100629.00
2022-10-01T11:02:27.434Z,100625.00
2022-10-01T11:08:29.887Z,100616.00
2022-10-01T11:14:55.283Z,100614.00
2022-10-01T11:21:17.901Z,100612.00
2022-10-01T11:27:36.836Z,100574.00
2022-10-01T11:34:16.584Z,100567.00
2022-10-01T11:40:28.652Z,100568.00
2022-10-01T11:46:34.367Z,100567.00
2022-10-01T11:52:47.848Z,100548.00
2022-10-01T11:58:56.996Z,100554.00
2022-10-01T12:05:06.366Z,100549.00
2022-10-01T12:11:23.847Z,100534.00
2022-10-01T12:17:40.000Z,100518.00
2022-10-01T12:23:51.729Z,100512.00
2022-10-01T12:30:29.699Z,100484.00
2022-10-01T12:36:43.336Z,100484.00
2022-10-01T12:42:51.871Z,100476.00
2022-10-01T12:49:22.649Z,100487.00
2022-10-01T12:55:42.990Z,100476.00
2022-10-01T13:02:12.307Z,100476.00
2022-10-01T13:08:17.199Z,100460.00
2022-10-01T13:14:20.307Z,100456.00
2022-10-01T13:20:34.564Z,100438.00
2022-10-01T13:26:58.576Z,100435.00
2022-10-01T13:33:01.645Z,100416.00
2022-10-01T13:39:03.903Z,100400.00
2022-10-01T13:45:08.085Z,100400.00
2022-10-01T13:51:12.914Z,100381.00
2022-10-01T13:57:37.543Z,100392.00
2022-10-01T14:03:59.222Z,100385.00
2022-10-01T14:10:02.154Z,100376.00
2022-10-01T14:16:05.612Z,100379.00
2022-10-01T14:22:34.260Z,100359.00
2022-10-01T14:28:54.686Z,100360.00
2022-10-01T14:34:59.723Z,100326.00
2022-10-01T14:41:02.280Z,100326.00
2022-10-01T14:47:21.668Z,100303.00
2022-10-01T14:53:27.310Z,100281.00
2022-10-01T14:59:40.402Z,100293.00
2022-10-01T15:05:43.357Z,100284.00
2022-10-01T15:11:48.934Z,100274.00
2022-10-01T15:17:52.418Z,100284.00
2022-10-01T15:23:54.784Z,100287.00
2022-10-01T15:29:59.084Z,100269.00
2022-10-01T15:36:12.999Z,100266.00
2022-10-01T15:42:32.264Z,100254.00
2022-10-01T15:48:34.379Z,100250.00
2022-10-01T15:54:37.920Z,100235.00
2022-10-01T16:01:01.929Z,100194.00
2022-10-01T16:07:04.289Z,100133.00
2022-10-01T16:13:34.726Z,100176.00
2022-10-01T16:19:36.910Z,100151.00
2022-10-01T16:25:45.309Z,100151.00
2022-10-01T16:31:47.793Z,100135.00
2022-10-01T16:37:52.353Z,100083.00
2022-10-01T16:43:57.194Z,100149.00
2022-10-01T16:49:59.743Z,100155.00
2022-10-01T16:56:02.270Z,100140.00
2022-10-01T17:02:04.422Z,100079.00
2022-10-01T17:08:11.752Z,100105.00
2022-10-01T17:14:17.787Z,100137.00
2022-10-01T17:20:20.652Z,100130.00
2022-10-01T17:26:22.883Z,100125.00
2022-10-01T17:32:25.041Z,100102.00
2022-10-01T17:38:27.394Z,100112.00
2022-10-01T17:44:29.643Z,100111.00
2022-10-01T17:50:32.024Z,100082.00
2022-10-01T17:56:34.592Z,100073.00
2022-10-01T18:02:41.952Z,100052.00
2022-10-01T18:08:55.008Z,100053.00
2022-10-01T18:14:58.150Z,100051.00
2022-10-01T18:21:04.579Z,100050.00
2022-10-01T18:27:06.729Z,100022.00
2022-10-01T18:33:11.763Z,100019.00
2022-10-01T18:39:47.409Z,100016.00
2022-10-01T18:46:13.353Z,100008.00
2022-10-01T18:52:40.620Z,100011.00
2022-10-01T18:58:57.640Z,100023.00
2022-10-01T19:05:12.122Z,100020.00
2022-10-01T19:11:29.044Z,100009.00
2022-10-01T19:17:34.204Z,100004.00
2022-10-01T19:23:39.218Z,99987.00
2022-10-01T19:30:07.457Z,99992.00
2022-10-01T19:36:17.174Z,99987.00
2022-10-01T19:42:26.450Z,99985.00
2022-10-01T19:48:51.232Z,99954.00
2022-10-01T19:54:59.162Z,99964.00
2022-10-01T20:01:03.659Z,99941.00
2022-10-01T20:07:13.511Z,99963.00
2022-10-01T20:13:24.570Z,99963.00
2022-10-01T20:19:38.703Z,99968.00
2022-10-01T20:25:53.636Z,100007.00
2022-10-01T20:32:15.956Z,100013.00
2022-10-01T20:38:39.854Z,99983.00
2022-10-01T20:44:42.093Z,99963.00
2022-10-01T20:50:46.233Z,99979.00
2022-10-01T20:57:00.098Z,99968.00
2022-10-01T21:03:16.231Z,99977.00
2022-10-01T21:09:25.484Z,99980.00
2022-10-01T21:15:36.962Z,99986.00
2022-10-01T21:22:07.183Z,99999.00
2022-10-01T21:28:09.798Z,100006.00
2022-10-01T21:34:39.826Z,100048.00
2022-10-01T21:41:00.292Z,100021.00
2022-10-01T21:47:27.737Z,100041.00
2022-10-01T21:53:57.215Z,100082.00
2022-10-01T22:00:13.525Z,100084.00
2022-10-01T22:06:18.999Z,100029.00
2022-10-01T22:12:22.190Z,100054.00
2022-10-01T22:18:35.905Z,100032.00
2022-10-01T22:24:52.563Z,99992.00
2022-10-01T22:30:58.022Z,99955.00
2022-10-01T22:37:09.976Z,99966.00
2022-10-01T22:43:13.569Z,99984.00
2022-10-01T22:49:32.351Z,99997.00
2022-10-01T22:55:53.365Z,99942.00
2022-10-01T23:02:12.296Z,99884.00
2022-10-01T23:08:23.915Z,99889.00
2022-10-01T23:14:57.844Z,99899.00
2022-10-01T23:21:50.636Z,99911.00
2022-10-01T23:28:08.125Z,99873.00
2022-10-01T23:34:36.490Z,99903.00
2022-10-01T23:40:45.519Z,99874.00
2022-10-01T23:46:51.113Z,99879.00
2022-10-01T23:53:10.600Z,99871.00
2022-10-01T23:59:40.885Z,99874.00
